Time;durP1;ratioP1;P1;durP2;ratioP2;P2;SDS_P1;SDS_P2;PMS_P1;PMS_P2;Temp;Humidity;BMP_temperature;BMP_pressure;BME280_temperature;BME280_humidity;BME280_pressure;Samples;Min_cycle;Max_cycle;Signal;HPM_P1;HPM_P2
2023/09/02 00:02:20;;;;;;;1.43;1.33;;;23.10;48.60;;;;;;5020772;28;20498;-80
2023/09/02 00:04:45;;;;;;;1.20;1.10;;;23.10;48.60;;;;;;5017760;28;20742;-76
2023/09/02 00:07:11;;;;;;;5.43;1.10;;;23.10;48.60;;;;;;5018911;28;20230;-79
2023/09/02 00:09:36;;;;;;;1.70;1.23;;;23.10;48.60;;;;;;5018324;28;20241;-78
2023/09/02 00:12:02;;;;;;;1.13;1.03;;;23.10;48.60;;;;;;5020023;28;20292;-79
2023/09/02 00:14:28;;;;;;;1.20;1.10;;;23.10;48.60;;;;;;5019568;28;20226;-76
2023/09/02 00:16:53;;;;;;;1.43;1.33;;;23.10;48.60;;;;;;5018745;28;20321;-81
2023/09/02 00:19:19;;;;;;;1.40;1.30;;;23.10;48.60;;;;;;5020156;28;20233;-76
2023/09/02 00:21:44;;;;;;;1.40;1.30;;;23.10;48.60;;;;;;5018232;28;20231;-81
2023/09/02 00:24:10;;;;;;;1.40;1.30;;;23.10;48.60;;;;;;5022604;28;20448;-80
2023/09/02 00:26:35;;;;;;;1.30;1.20;;;23.10;48.60;;;;;;5018766;28;20226;-80
2023/09/02 00:29:01;;;;;;;1.37;1.27;;;23.10;48.60;;;;;;5019902;28;20338;-79
2023/09/02 00:31:28;;;;;;;1.40;1.30;;;23.10;48.60;;;;;;5021534;28;20260;-75
2023/09/02 00:33:54;;;;;;;1.40;1.30;;;23.10;48.50;;;;;;5019658;28;20482;-80
2023/09/02 00:36:20;;;;;;;1.27;1.17;;;23.10;48.60;;;;;;5016030;28;20494;-81
2023/09/02 00:38:45;;;;;;;1.90;1.27;;;23.10;48.50;;;;;;5018677;28;20246;-80
2023/09/02 00:41:14;;;;;;;1.40;1.30;;;23.10;48.60;;;;;;5020774;28;20828;-78
2023/09/02 00:43:41;;;;;;;1.40;1.30;;;23.10;48.50;;;;;;5021716;28;20306;-79
2023/09/02 00:46:09;;;;;;;1.63;1.53;;;23.10;48.50;;;;;;5018713;28;20505;-80
2023/09/02 00:48:35;;;;;;;1.20;1.10;;;23.10;48.60;;;;;;5018393;28;20447;-76
2023/09/02 00:51:01;;;;;;;1.60;1.50;;;23.10;48.60;;;;;;5014721;28;20466;-78
2023/09/02 00:53:27;;;;;;;1.80;1.20;;;23.10;48.60;;;;;;5021253;28;20546;-79
2023/09/02 00:55:53;;;;;;;1.50;1.40;;;23.10;48.60;;;;;;5019685;28;20319;-81
2023/09/02 00:58:19;;;;;;;1.10;1.00;;;23.10;48.60;;;;;;5019102;28;20459;-76
2023/09/02 01:00:46;;;;;;;1.30;1.20;;;23.00;48.50;;;;;;5019476;28;20224;-78
2023/09/02 01:03:12;;;;;;;1.37;1.27;;;23.10;48.50;;;;;;5021170;28;20234;-79
2023/09/02 01:05:38;;;;;;;1.40;1.30;;;23.10;48.50;;;;;;5017743;28;21117;-76
2023/09/02 01:08:05;;;;;;;1.30;1.20;;;23.00;48.50;;;;;;5018738;28;20226;-80
2023/09/02 01:10:35;;;;;;;1.30;1.20;;;23.00;48.50;;;;;;5015840;28;20230;-80
2023/09/02 01:13:02;;;;;;;4.50;1.27;;;23.10;48.60;;;;;;5020477;28;20464;-76
2023/09/02 01:15:28;;;;;;;1.40;1.30;;;23.00;48.50;;;;;;5012956;28;20470;-78
2023/09/02 01:17:53;;;;;;;1.20;1.10;;;23.00;48.50;;;;;;5021049;28;20560;-79
2023/09/02 01:20:21;;;;;;;1.30;1.20;;;23.00;48.50;;;;;;5015414;28;20229;-81
2023/09/02 01:23:18;;;;;;;1.40;1.30;;;23.00;48.50;;;;;;5016468;28;20234;-76
2023/09/02 01:26:04;;;;;;;1.20;1.10;;;23.00;48.50;;;;;;5018042;28;20495;-80
2023/09/02 01:28:38;;;;;;;1.20;1.10;;;23.00;48.50;;;;;;5019329;28;20581;-80
2023/09/02 01:31:07;;;;;;;1.43;1.33;;;23.00;48.50;;;;;;5018301;28;20470;-82
2023/09/02 01:33:33;;;;;;;1.30;1.20;;;23.00;48.60;;;;;;5018672;28;20942;-77
2023/09/02 01:36:00;;;;;;;1.30;1.20;;;23.00;48.60;;;;;;5018136;28;20456;-76
2023/09/02 01:38:28;;;;;;;1.50;1.40;;;23.00;48.60;;;;;;5017528;28;20246;-78
2023/09/02 01:40:56;;;;;;;1.20;1.10;;;23.00;48.60;;;;;;5018697;28;21112;-79
2023/09/02 01:43:23;;;;;;;1.50;1.40;;;23.00;48.50;;;;;;5019217;28;20728;-77
2023/09/02 01:45:51;;;;;;;1.20;1.10;;;23.00;48.60;;;;;;5016400;28;20493;-80
2023/09/02 01:48:18;;;;;;;1.40;1.30;;;23.00;48.50;;;;;;5021539;28;20820;-78
2023/09/02 01:50:44;;;;;;;1.30;1.20;;;23.00;48.50;;;;;;5016619;28;20858;-77
2023/09/02 01:53:09;;;;;;;1.30;1.20;;;23.00;48.50;;;;;;5018589;28;20460;-81
2023/09/02 01:55:35;;;;;;;1.30;1.20;;;23.00;48.50;;;;;;5017799;28;20943;-76
2023/09/02 01:58:01;;;;;;;1.20;1.10;;;23.00;49.30;;;;;;5016736;28;20222;-75
2023/09/02 02:00:28;;;;;;;1.30;1.13;;;23.00;48.50;;;;;;5015150;28;20464;-77
2023/09/02 02:02:54;;;;;;;1.30;1.20;;;23.00;48.50;;;;;;5017030;28;20240;-78
2023/09/02 02:05:33;;;;;;;1.40;1.30;;;23.00;48.60;;;;;;5018121;28;20596;-78
2023/09/02 02:08:04;;;;;;;1.40;1.30;;;23.00;48.50;;;;;;5023652;28;21129;-78
2023/09/02 02:10:31;;;;;;;1.27;1.17;;;23.00;48.50;;;;;;5019613;28;20468;-77
2023/09/02 02:13:01;;;;;;;1.27;1.17;;;23.00;48.50;;;;;;5018268;28;20478;-78
2023/09/02 02:15:27;;;;;;;1.20;1.10;;;23.00;48.50;;;;;;5016617;28;20459;-78
2023/09/02 02:17:52;;;;;;;1.30;1.20;;;23.00;48.50;;;;;;5016873;28;21193;-79
2023/09/02 02:20:18;;;;;;;1.20;1.10;;;23.00;48.50;;;;;;5001024;28;20225;-79
2023/09/02 02:22:44;;;;;;;1.20;1.10;;;23.00;48.50;;;;;;5014344;28;20230;-76
2023/09/02 02:25:09;;;;;;;1.30;1.20;;;23.00;48.50;;;;;;5014058;28;20704;-79
2023/09/02 02:27:35;;;;;;;1.30;1.20;;;23.00;48.50;;;;;;5009206;28;21351;-79
2023/09/02 02:30:00;;;;;;;1.30;1.20;;;23.00;48.60;;;;;;5017802;28;20217;-80
2023/09/02 02:32:26;;;;;;;1.50;1.40;;;23.00;48.50;;;;;;5013459;28;20230;-77
2023/09/02 02:34:53;;;;;;;1.23;1.13;;;23.00;48.50;;;;;;5020758;28;20241;-78
2023/09/02 02:37:18;;;;;;;1.33;1.23;;;23.00;48.50;;;;;;5021804;28;20772;-76
2023/09/02 02:39:44;;;;;;;1.60;1.50;;;23.00;48.50;;;;;;5021852;28;20452;-78
2023/09/02 02:42:09;;;;;;;1.20;1.10;;;23.00;48.50;;;;;;5017531;28;20234;-79
2023/09/02 02:44:35;;;;;;;1.27;1.13;;;23.00;48.50;;;;;;5020575;28;20245;-78
2023/09/02 02:47:01;;;;;;;1.10;1.00;;;23.00;48.50;;;;;;5021695;28;20293;-78
2023/09/02 02:49:27;;;;;;;1.30;1.20;;;23.00;48.50;;;;;;5022210;28;20448;-79
2023/09/02 02:51:53;;;;;;;2.67;1.60;;;23.00;48.50;;;;;;5022573;28;20222;-80
2023/09/02 02:54:19;;;;;;;1.40;1.30;;;23.00;48.40;;;;;;5019662;28;20230;-78
2023/09/02 02:56:47;;;;;;;1.40;1.30;;;23.00;48.50;;;;;;5022497;28;20490;-80
2023/09/02 02:59:13;;;;;;;1.60;1.40;;;23.00;48.50;;;;;;5021379;28;20423;-77
2023/09/02 03:01:38;;;;;;;1.40;1.30;;;23.00;48.40;;;;;;5019210;28;20958;-80
2023/09/02 03:04:05;;;;;;;1.50;1.40;;;23.00;48.50;;;;;;5021922;28;21992;-79
2023/09/02 03:06:30;;;;;;;1.33;1.23;;;23.00;48.40;;;;;;5020796;28;20215;-80
2023/09/02 03:08:56;;;;;;;1.30;1.20;;;23.00;48.40;;;;;;5021457;28;20467;-76
2023/09/02 03:11:21;;;;;;;1.33;1.23;;;23.00;48.40;;;;;;5020114;28;20226;-80
2023/09/02 03:13:47;;;;;;;1.37;1.27;;;23.00;48.40;;;;;;5023632;28;20223;-78
2023/09/02 03:16:12;;;;;;;1.40;1.30;;;23.00;48.50;;;;;;5018283;28;20231;-75
2023/09/02 03:18:40;;;;;;;1.20;1.10;;;23.00;48.50;;;;;;5021778;28;20356;-78
2023/09/02 03:21:06;;;;;;;1.83;1.30;;;23.00;48.50;;;;;;5020708;28;20256;-76
2023/09/02 03:23:35;;;;;;;1.40;1.30;;;23.00;48.50;;;;;;5020820;28;20480;-77
2023/09/02 03:26:11;;;;;;;1.20;1.10;;;23.00;48.50;;;;;;5018491;28;20554;-79
2023/09/02 03:28:37;;;;;;;1.40;1.30;;;23.00;48.50;;;;;;5020286;28;20455;-80
2023/09/02 03:31:07;;;;;;;1.33;1.23;;;23.00;48.50;;;;;;5020699;28;20471;-78
2023/09/02 03:33:32;;;;;;;1.20;1.10;;;23.00;48.50;;;;;;5020455;28;20236;-80
2023/09/02 03:35:59;;;;;;;1.50;1.40;;;23.00;48.40;;;;;;5022009;28;20468;-80
2023/09/02 03:38:25;;;;;;;1.27;1.17;;;23.00;48.50;;;;;;5018501;28;20687;-76
2023/09/02 03:40:51;;;;;;;1.20;1.10;;;23.00;48.50;;;;;;5020695;28;20482;-80
2023/09/02 03:43:16;;;;;;;1.40;1.30;;;23.00;48.40;;;;;;5022108;28;20853;-80
2023/09/02 03:45:42;;;;;;;1.70;1.60;;;23.00;48.40;;;;;;5021150;28;20230;-78
2023/09/02 03:48:08;;;;;;;1.30;1.20;;;23.00;48.40;;;;;;5020208;28;20842;-79
2023/09/02 03:51:11;;;;;;;1.30;1.20;;;23.00;48.40;;;;;;5021218;28;20226;-77
2023/09/02 03:53:37;;;;;;;1.30;1.20;;;23.00;48.40;;;;;;5018231;28;20226;-79
2023/09/02 03:56:03;;;;;;;2.23;1.30;;;23.00;48.50;;;;;;5021126;28;20547;-79
2023/09/02 03:58:29;;;;;;;1.00;1.00;;;23.00;48.50;;;;;;5020776;28;20502;-79
2023/09/02 04:00:55;;;;;;;1.37;1.27;;;23.00;48.50;;;;;;5021938;28;20248;-80
2023/09/02 04:03:21;;;;;;;1.50;1.40;;;23.00;48.50;;;;;;5017773;28;21295;-78
2023/09/02 04:05:48;;;;;;;1.37;1.27;;;23.00;48.40;;;;;;5018842;28;20526;-79
2023/09/02 04:08:17;;;;;;;1.23;1.13;;;23.00;48.40;;;;;;5021362;28;20685;-80
2023/09/02 04:10:42;;;;;;;1.40;1.30;;;23.00;48.40;;;;;;5019541;28;20467;-76
2023/09/02 04:13:08;;;;;;;1.50;1.40;;;23.00;48.40;;;;;;5018425;28;20459;-80
2023/09/02 04:15:33;;;;;;;1.10;1.00;;;23.00;48.40;;;;;;5018724;28;20227;-78
2023/09/02 04:17:59;;;;;;;1.20;1.10;;;23.00;48.40;;;;;;5020221;28;20230;-79
2023/09/02 04:20:26;;;;;;;1.20;1.10;;;23.00;48.40;;;;;;5018320;28;20222;-81
2023/09/02 04:22:51;;;;;;;1.20;1.10;;;23.00;48.40;;;;;;5016500;28;20238;-80
2023/09/02 04:25:19;;;;;;;1.97;1.10;;;23.00;48.40;;;;;;5016193;28;20506;-79
2023/09/02 04:27:45;;;;;;;1.50;1.40;;;23.00;48.40;;;;;;5019995;28;20223;-80
2023/09/02 04:30:11;;;;;;;1.30;1.20;;;23.00;48.40;;;;;;5017156;28;20476;-75
2023/09/02 04:32:36;;;;;;;1.40;1.30;;;23.00;48.40;;;;;;5020149;28;20297;-79
2023/09/02 04:35:02;;;;;;;1.20;1.10;;;23.00;48.40;;;;;;5018487;28;20464;-77
2023/09/02 04:37:28;;;;;;;1.30;1.20;;;23.00;48.40;;;;;;5021863;28;20230;-76
2023/09/02 04:39:53;;;;;;;1.10;1.00;;;23.00;48.30;;;;;;5013520;28;20226;-78
2023/09/02 04:42:19;;;;;;;1.30;1.20;;;23.00;48.30;;;;;;5014533;28;20234;-74
2023/09/02 04:44:44;;;;;;;3.93;1.60;;;23.00;48.30;;;;;;5012015;28;20337;-75
2023/09/02 04:47:12;;;;;;;1.20;1.10;;;23.00;48.30;;;;;;5013045;28;20312;-78
2023/09/02 04:49:37;;;;;;;1.30;1.20;;;23.00;48.30;;;;;;5017649;28;20219;-80
2023/09/02 04:52:03;;;;;;;1.40;1.30;;;23.00;48.30;;;;;;5017270;28;20447;-78
2023/09/02 04:54:29;;;;;;;1.37;1.27;;;23.00;48.20;;;;;;5015957;28;20229;-77
2023/09/02 04:56:54;;;;;;;1.73;1.63;;;23.00;48.30;;;;;;5018053;28;20253;-80
2023/09/02 04:59:20;;;;;;;1.27;1.17;;;23.00;48.20;;;;;;5019040;28;20866;-79
2023/09/02 05:01:45;;;;;;;0.90;0.90;;;23.00;48.20;;;;;;5019717;28;20218;-79
2023/09/02 05:04:11;;;;;;;2.80;1.30;;;23.00;48.10;;;;;;5020452;28;20240;-77
2023/09/02 05:06:37;;;;;;;1.40;1.30;;;23.00;48.20;;;;;;5020308;28;20356;-80
2023/09/02 05:09:03;;;;;;;1.50;1.40;;;23.00;48.10;;;;;;5019227;28;20223;-80
2023/09/02 05:11:28;;;;;;;1.20;1.10;;;23.00;48.00;;;;;;5021235;28;21114;-80
2023/09/02 05:13:54;;;;;;;1.40;1.17;;;23.00;48.10;;;;;;5017283;28;20460;-81
2023/09/02 05:16:19;;;;;;;1.40;1.30;;;23.00;48.00;;;;;;5015189;28;20689;-76
2023/09/02 05:18:45;;;;;;;1.50;1.20;;;23.00;48.00;;;;;;5018181;28;20227;-76
2023/09/02 05:21:10;;;;;;;1.50;1.40;;;23.00;48.00;;;;;;5018688;28;20276;-79
2023/09/02 05:23:36;;;;;;;1.50;1.40;;;23.00;47.90;;;;;;5019188;28;20249;-80
2023/09/02 05:26:02;;;;;;;1.23;1.13;;;23.00;47.90;;;;;;5016965;28;20233;-80
2023/09/02 05:28:27;;;;;;;1.13;1.03;;;23.00;48.00;;;;;;5018548;28;20527;-77
2023/09/02 05:30:53;;;;;;;1.30;1.20;;;23.00;47.90;;;;;;5018003;28;20226;-80
2023/09/02 05:33:19;;;;;;;1.60;1.50;;;23.00;47.80;;;;;;5018816;28;20234;-77
2023/09/02 05:35:44;;;;;;;1.40;1.30;;;23.00;47.90;;;;;;5013921;28;20282;-79
2023/09/02 05:38:10;;;;;;;1.30;1.20;;;23.00;47.80;;;;;;5016589;28;20222;-77
2023/09/02 05:40:39;;;;;;;1.30;1.20;;;23.00;47.80;;;;;;5021383;28;20265;-77
2023/09/02 05:43:04;;;;;;;1.33;1.23;;;23.00;47.80;;;;;;5019038;28;20260;-80
2023/09/02 05:45:30;;;;;;;4.13;1.40;;;23.00;47.80;;;;;;5014840;28;20578;-81
2023/09/02 05:47:56;;;;;;;1.40;1.30;;;23.00;47.80;;;;;;5018566;28;20271;-77
2023/09/02 05:50:21;;;;;;;1.07;1.00;;;23.00;47.80;;;;;;5018569;28;20308;-79
2023/09/02 05:52:47;;;;;;;1.20;1.20;;;23.10;47.80;;;;;;5027809;28;20708;-78
2023/09/02 05:55:12;;;;;;;1.30;1.20;;;23.00;47.70;;;;;;5019773;28;20221;-77
2023/09/02 05:57:38;;;;;;;1.23;1.17;;;23.00;47.70;;;;;;5024155;28;20345;-78
2023/09/02 06:00:04;;;;;;;1.40;1.27;;;23.00;47.60;;;;;;5021150;28;20571;-79
2023/09/02 06:02:34;;;;;;;1.40;1.23;;;23.00;47.60;;;;;;5027474;28;20245;-79
2023/09/02 06:05:00;;;;;;;1.40;1.30;;;23.00;47.60;;;;;;5029213;28;21102;-79
2023/09/02 06:07:25;;;;;;;1.20;1.10;;;23.00;47.70;;;;;;5028590;28;21201;-81
2023/09/02 06:09:51;;;;;;;3.43;1.20;;;23.00;47.60;;;;;;5028752;28;20452;-80
2023/09/02 06:12:16;;;;;;;2.67;1.30;;;23.00;47.60;;;;;;5025187;28;20226;-79
2023/09/02 06:14:42;;;;;;;1.37;1.27;;;23.00;47.60;;;;;;5027755;28;20218;-82
2023/09/02 06:17:08;;;;;;;1.23;1.13;;;23.00;47.60;;;;;;5034070;28;20747;-83
2023/09/02 06:19:34;;;;;;;1.23;1.13;;;23.10;47.70;;;;;;5026876;28;20688;-82
2023/09/02 06:21:59;;;;;;;1.63;1.20;;;23.00;47.50;;;;;;5022315;28;20508;-79
2023/09/02 06:24:27;;;;;;;1.17;1.07;;;23.00;47.60;;;;;;5025892;28;20494;-78
2023/09/02 06:26:52;;;;;;;1.20;1.10;;;23.00;47.60;;;;;;5025114;28;20237;-80
2023/09/02 06:29:18;;;;;;;1.40;1.30;;;23.00;47.50;;;;;;5025164;28;20468;-81
2023/09/02 06:31:45;;;;;;;1.17;1.07;;;23.00;47.50;;;;;;5025775;28;20218;-79
2023/09/02 06:34:11;;;;;;;1.30;1.20;;;23.00;47.60;;;;;;5027380;28;20225;-79
2023/09/02 06:36:36;;;;;;;1.20;1.10;;;23.00;47.70;;;;;;5017057;28;20517;-78
2023/09/02 06:39:03;;;;;;;1.20;1.10;;;23.00;47.70;;;;;;5022594;28;20263;-81
2023/09/02 06:41:29;;;;;;;1.73;1.23;;;23.00;47.60;;;;;;5013891;28;20226;-78
2023/09/02 06:43:54;;;;;;;1.20;1.10;;;23.00;47.60;;;;;;5013265;28;20492;-83
2023/09/02 06:46:20;;;;;;;1.30;1.20;;;23.00;47.60;;;;;;5016380;28;20253;-83
2023/09/02 06:48:47;;;;;;;1.23;1.13;;;23.00;47.60;;;;;;5015467;28;20356;-79
2023/09/02 06:51:13;;;;;;;1.60;1.10;;;23.00;47.70;;;;;;5018567;28;20459;-78
2023/09/02 06:53:40;;;;;;;1.30;1.20;;;23.00;47.60;;;;;;5021376;28;20475;-81
2023/09/02 06:56:09;;;;;;;1.20;1.10;;;23.00;47.60;;;;;;5016880;28;20475;-78
2023/09/02 06:58:37;;;;;;;1.33;1.20;;;23.10;47.70;;;;;;5018380;28;20478;-79
2023/09/02 07:01:03;;;;;;;1.17;1.07;;;23.00;47.50;;;;;;5020892;28;20951;-81
2023/09/02 07:03:28;;;;;;;1.17;1.07;;;23.10;47.60;;;;;;5024418;28;20476;-83
2023/09/02 07:06:02;;;;;;;1.40;1.30;;;23.00;47.60;;;;;;5026603;28;20232;-81
2023/09/02 07:08:27;;;;;;;1.17;1.07;;;23.10;47.70;;;;;;5035554;28;20269;-84
2023/09/02 07:10:53;;;;;;;1.20;1.10;;;23.10;47.70;;;;;;5029682;28;20450;-85
2023/09/02 07:13:18;;;;;;;1.07;1.00;;;23.00;47.60;;;;;;5033862;28;20223;-83
2023/09/02 07:15:44;;;;;;;1.47;1.30;;;23.10;47.70;;;;;;5027368;28;22154;-82
2023/09/02 07:18:09;;;;;;;1.20;1.10;;;23.10;47.70;;;;;;5022567;28;20225;-83
2023/09/02 07:20:36;;;;;;;1.40;1.30;;;23.10;47.80;;;;;;5021307;28;20878;-78
2023/09/02 07:23:02;;;;;;;1.30;1.20;;;23.10;47.80;;;;;;5024478;28;20253;-82
2023/09/02 07:25:27;;;;;;;1.20;1.10;;;23.10;47.80;;;;;;5026743;28;20933;-82
2023/09/02 07:27:53;;;;;;;3.00;1.17;;;23.10;47.80;;;;;;5027175;28;20221;-81
2023/09/02 07:30:19;;;;;;;1.30;1.20;;;23.10;47.80;;;;;;5023353;28;21293;-80
2023/09/02 07:32:44;;;;;;;1.23;1.13;;;23.10;47.80;;;;;;5025874;28;20352;-81
2023/09/02 07:35:10;;;;;;;1.17;1.07;;;23.10;47.80;;;;;;5022233;28;20348;-84
2023/09/02 07:37:35;;;;;;;1.40;1.30;;;23.10;47.80;;;;;;5022727;28;20218;-82
2023/09/02 07:40:01;;;;;;;4.03;1.33;;;23.10;47.90;;;;;;5029066;28;20226;-76
2023/09/02 07:42:26;;;;;;;3.20;1.30;;;23.10;47.90;;;;;;5025146;28;20268;-71
2023/09/02 07:44:52;;;;;;;1.40;1.30;;;23.10;47.90;;;;;;5026322;28;20230;-75
2023/09/02 07:47:17;;;;;;;1.50;1.40;;;23.10;47.80;;;;;;5025229;28;20219;-79
2023/09/02 07:49:43;;;;;;;1.37;1.27;;;23.10;48.00;;;;;;5024478;28;20218;-76
2023/09/02 07:52:08;;;;;;;1.53;1.43;;;23.10;48.00;;;;;;5026396;28;20242;-75
2023/09/02 07:54:34;;;;;;;1.87;1.60;;;23.10;47.90;;;;;;5021688;28;20230;-75
2023/09/02 07:56:59;;;;;;;1.50;1.40;;;23.10;47.90;;;;;;5025002;28;20276;-75
2023/09/02 07:59:25;;;;;;;1.70;1.60;;;23.10;47.90;;;;;;5027010;28;20219;-75
2023/09/02 08:01:50;;;;;;;2.77;1.60;;;23.10;48.00;;;;;;5026338;28;20794;-75
2023/09/02 08:04:16;;;;;;;1.80;1.63;;;23.10;48.00;;;;;;5025968;28;20233;-76
2023/09/02 08:06:42;;;;;;;1.83;1.57;;;23.10;48.00;;;;;;5024560;28;20229;-75
2023/09/02 08:09:08;;;;;;;1.87;1.40;;;23.10;48.00;;;;;;5025103;28;20227;-75
2023/09/02 08:11:33;;;;;;;1.37;1.27;;;23.10;48.00;;;;;;5025919;28;20502;-75
2023/09/02 08:13:59;;;;;;;2.20;1.60;;;23.10;48.00;;;;;;5027633;28;21229;-77
2023/09/02 08:16:24;;;;;;;1.50;1.40;;;23.10;48.00;;;;;;5028872;28;20302;-74
2023/09/02 08:18:50;;;;;;;1.87;1.77;;;23.10;48.10;;;;;;5028854;28;20272;-75
2023/09/02 08:21:16;;;;;;;2.90;1.43;;;23.10;48.00;;;;;;5022218;28;20230;-77
2023/09/02 08:23:41;;;;;;;2.03;1.60;;;23.10;48.00;;;;;;5024251;28;21246;-77
2023/09/02 08:26:12;;;;;;;2.33;1.50;;;23.10;48.00;;;;;;5031726;28;20500;-75
2023/09/02 08:28:39;;;;;;;1.70;1.60;;;23.10;48.00;;;;;;5026047;28;20284;-76
2023/09/02 08:31:04;;;;;;;1.63;1.53;;;23.10;48.00;;;;;;5034392;28;20513;-76
2023/09/02 08:33:30;;;;;;;2.83;1.87;;;23.10;48.00;;;;;;5033040;28;20542;-75
2023/09/02 08:35:55;;;;;;;1.60;1.50;;;23.10;48.00;;;;;;5032581;28;20209;-74
2023/09/02 08:38:21;;;;;;;1.70;1.60;;;23.10;48.10;;;;;;5034450;28;20665;-74
2023/09/02 08:40:48;;;;;;;1.70;1.60;;;23.10;48.00;;;;;;5033693;28;20205;-74
2023/09/02 08:43:15;;;;;;;1.90;1.80;;;23.10;48.00;;;;;;5033452;28;20233;-74
2023/09/02 08:45:45;;;;;;;1.87;1.70;;;23.10;48.10;;;;;;5033961;28;20474;-74
2023/09/02 08:48:21;;;;;;;1.93;1.83;;;23.10;48.10;;;;;;5033920;28;20439;-74
2023/09/02 08:50:46;;;;;;;1.67;1.57;;;23.10;48.10;;;;;;5034911;28;20435;-74
2023/09/02 08:53:12;;;;;;;2.73;1.80;;;23.20;48.10;;;;;;5025940;28;20444;-73
2023/09/02 08:55:40;;;;;;;2.03;1.93;;;23.10;48.10;;;;;;5032704;28;20194;-73
2023/09/02 08:58:07;;;;;;;1.93;1.83;;;23.10;48.10;;;;;;5032490;28;20647;-74
2023/09/02 09:00:34;;;;;;;1.80;1.70;;;23.10;48.10;;;;;;5033189;28;20494;-73
2023/09/02 09:03:02;;;;;;;1.87;1.77;;;23.20;48.20;;;;;;5030548;28;20474;-73
2023/09/02 09:05:28;;;;;;;1.90;1.80;;;23.20;48.10;;;;;;5039908;28;20834;-73
2023/09/02 09:07:54;;;;;;;2.17;2.07;;;23.20;48.20;;;;;;5029687;28;20451;-75
2023/09/02 09:10:21;;;;;;;5.27;2.30;;;23.20;48.20;;;;;;5027087;28;20535;-75
2023/09/02 09:12:50;;;;;;;3.67;2.40;;;23.20;48.20;;;;;;5032445;28;20454;-75
2023/09/02 09:15:17;;;;;;;2.97;2.20;;;23.20;48.20;;;;;;5031384;28;20740;-75
2023/09/02 09:17:43;;;;;;;2.10;1.90;;;23.20;48.20;;;;;;5029753;28;20835;-74
2023/09/02 09:20:11;;;;;;;3.20;2.40;;;23.20;48.10;;;;;;5021274;28;20951;-74
2023/09/02 09:22:40;;;;;;;1.90;1.80;;;23.20;48.10;;;;;;5023950;28;20498;-74
2023/09/02 09:25:06;;;;;;;2.33;2.23;;;23.20;48.10;;;;;;5021328;28;20969;-74
2023/09/02 09:27:34;;;;;;;1.93;1.83;;;23.20;48.10;;;;;;5018290;28;20446;-74
2023/09/02 09:30:00;;;;;;;2.53;1.80;;;23.20;48.10;;;;;;5034722;28;20439;-74
2023/09/02 09:32:26;;;;;;;2.00;1.63;;;23.30;48.10;;;;;;5028944;28;20436;-74
2023/09/02 09:34:51;;;;;;;3.60;2.20;;;23.30;48.20;;;;;;5031369;28;20688;-74
2023/09/02 09:37:17;;;;;;;2.10;2.00;;;23.30;48.20;;;;;;5029592;28;20186;-74
2023/09/02 09:39:47;;;;;;;1.90;1.80;;;23.30;48.20;;;;;;5030434;28;20190;-74
2023/09/02 09:42:15;;;;;;;2.00;1.90;;;23.30;48.20;;;;;;5028111;28;20218;-74
2023/09/02 09:44:57;;;;;;;2.27;2.07;;;23.30;48.20;;;;;;5032570;28;20474;-74
2023/09/02 09:47:24;;;;;;;2.60;2.20;;;23.30;48.20;;;;;;5029539;28;20435;-74
2023/09/02 09:49:50;;;;;;;1.83;1.73;;;23.30;48.20;;;;;;5048464;28;20508;-74
2023/09/02 09:52:18;;;;;;;2.13;1.80;;;23.30;48.30;;;;;;5031984;28;20563;-74
2023/09/02 09:54:48;;;;;;;1.70;1.60;;;23.30;48.20;;;;;;5026987;28;20776;-74
2023/09/02 09:57:17;;;;;;;1.80;1.70;;;23.30;48.20;;;;;;5029266;28;21115;-74
2023/09/02 09:59:51;;;;;;;2.00;1.70;;;23.30;48.20;;;;;;5028635;28;20559;-74
2023/09/02 10:02:18;;;;;;;2.17;1.97;;;23.30;48.20;;;;;;5025291;28;20481;-74
2023/09/02 10:04:53;;;;;;;1.70;1.60;;;23.30;48.20;;;;;;5028399;28;20435;-74
2023/09/02 10:07:33;;;;;;;2.77;1.60;;;23.30;48.20;;;;;;5030953;28;20443;-75
2023/09/02 10:10:05;;;;;;;2.00;1.90;;;23.40;48.30;;;;;;5027428;28;20430;-72
2023/09/02 10:12:34;;;;;;;1.73;1.63;;;23.40;48.30;;;;;;5030639;28;20497;-73
2023/09/02 10:15:00;;;;;;;1.80;1.70;;;23.40;48.70;;;;;;5025562;28;20458;-73
2023/09/02 10:17:27;;;;;;;3.00;1.87;;;23.40;48.30;;;;;;5026312;28;20535;-73
2023/09/02 10:19:52;;;;;;;2.27;2.07;;;23.40;48.30;;;;;;5025435;28;20812;-75
2023/09/02 10:22:20;;;;;;;2.00;1.90;;;23.40;48.30;;;;;;5026148;28;20464;-74
2023/09/02 10:25:05;;;;;;;2.00;1.90;;;23.40;48.30;;;;;;5023596;28;20530;-75
2023/09/02 10:27:36;;;;;;;2.23;2.13;;;23.40;48.30;;;;;;5018712;28;20455;-75
2023/09/02 10:30:06;;;;;;;1.90;1.80;;;23.40;48.40;;;;;;5022279;28;20439;-75
2023/09/02 10:32:41;;;;;;;2.10;2.00;;;23.40;48.30;;;;;;5027983;28;20761;-77
2023/09/02 10:35:21;;;;;;;4.80;2.30;;;23.40;48.30;;;;;;5032419;28;20440;-76
2023/09/02 10:37:54;;;;;;;1.97;1.83;;;23.40;48.30;;;;;;5035964;28;20439;-77
2023/09/02 10:40:40;;;;;;;2.10;2.00;;;23.40;48.30;;;;;;5024877;28;20803;-77
2023/09/02 10:43:06;;;;;;;1.80;1.70;;;23.40;48.30;;;;;;5036640;28;21158;-76
2023/09/02 10:45:32;;;;;;;1.90;1.80;;;23.40;48.30;;;;;;5025462;28;20484;-77
2023/09/02 10:47:59;;;;;;;2.17;1.97;;;23.40;48.30;;;;;;5035659;28;20187;-78
2023/09/02 10:50:24;;;;;;;2.10;1.97;;;23.40;48.30;;;;;;5035519;28;20529;-79
2023/09/02 10:52:50;;;;;;;2.03;1.93;;;23.40;48.40;;;;;;5038958;28;20519;-74
2023/09/02 10:55:16;;;;;;;1.70;1.60;;;23.40;48.40;;;;;;5029622;28;20588;-74
2023/09/02 10:57:47;;;;;;;2.10;2.00;;;23.40;48.30;;;;;;5034619;28;20194;-75
2023/09/02 11:00:20;;;;;;;1.93;1.83;;;23.50;48.50;;;;;;5032324;28;20666;-75
2023/09/02 11:02:53;;;;;;;1.80;1.70;;;23.50;48.50;;;;;;5033894;28;20462;-74
2023/09/02 11:05:20;;;;;;;2.23;1.77;;;23.50;48.50;;;;;;5035473;28;20471;-74
2023/09/02 11:07:47;;;;;;;2.33;2.13;;;23.50;48.50;;;;;;5037790;28;20431;-75
2023/09/02 11:10:13;;;;;;;1.80;1.70;;;23.50;48.50;;;;;;5034891;28;20466;-74
2023/09/02 11:12:57;;;;;;;1.90;1.80;;;23.50;48.50;;;;;;5038354;28;20462;-74
2023/09/02 11:15:23;;;;;;;2.17;2.07;;;23.50;48.40;;;;;;5026239;28;20194;-74
2023/09/02 11:17:48;;;;;;;2.00;1.90;;;23.50;48.50;;;;;;5033297;28;21019;-75
2023/09/02 11:20:19;;;;;;;2.00;1.90;;;23.50;48.40;;;;;;5031653;28;20261;-75
2023/09/02 11:22:48;;;;;;;2.00;1.90;;;23.50;48.40;;;;;;5050547;28;20600;-75
2023/09/02 11:25:36;;;;;;;2.30;2.20;;;23.50;48.40;;;;;;5028434;28;20458;-74
2023/09/02 11:28:07;;;;;;;2.20;2.10;;;23.50;48.40;;;;;;5037666;28;20851;-75
2023/09/02 11:30:36;;;;;;;2.13;2.03;;;23.50;48.50;;;;;;5032328;28;20428;-75
2023/09/02 11:33:02;;;;;;;2.27;2.07;;;23.50;48.50;;;;;;5032708;28;21017;-74
2023/09/02 11:35:29;;;;;;;2.03;1.93;;;23.50;48.40;;;;;;5027810;28;20435;-74
2023/09/02 11:37:56;;;;;;;1.90;1.80;;;23.50;49.20;;;;;;5038115;28;20536;-74
2023/09/02 11:40:24;;;;;;;2.73;2.50;;;23.50;48.50;;;;;;5036656;28;21175;-74
2023/09/02 11:42:59;;;;;;;1.80;1.70;;;23.50;48.50;;;;;;5035279;28;20974;-73
2023/09/02 11:45:26;;;;;;;1.90;1.80;;;23.50;48.40;;;;;;5033604;28;20483;-73
2023/09/02 11:47:52;;;;;;;1.87;1.77;;;23.50;48.50;;;;;;5041037;28;20428;-73
2023/09/02 11:50:22;;;;;;;1.80;1.70;;;23.50;48.40;;;;;;5037457;28;20505;-73
2023/09/02 11:52:52;;;;;;;1.90;1.80;;;23.50;48.40;;;;;;5034041;28;20190;-73
2023/09/02 11:55:18;;;;;;;2.00;1.90;;;23.50;48.40;;;;;;5036740;28;20495;-74
2023/09/02 11:57:45;;;;;;;1.87;1.77;;;23.50;48.40;;;;;;5035610;28;21065;-72
2023/09/02 12:00:19;;;;;;;2.07;1.97;;;23.50;48.50;;;;;;5033604;28;20194;-78
2023/09/02 12:02:46;;;;;;;2.03;1.93;;;23.50;48.50;;;;;;5035691;28;20473;-72
2023/09/02 12:05:13;;;;;;;2.10;2.00;;;23.50;48.50;;;;;;5031717;28;20470;-73
2023/09/02 12:07:40;;;;;;;2.30;2.00;;;23.50;48.50;;;;;;5030205;28;20449;-72
2023/09/02 12:10:26;;;;;;;2.07;1.87;;;23.50;48.50;;;;;;5028057;28;20447;-73
2023/09/02 12:12:53;;;;;;;2.00;1.90;;;23.50;48.50;;;;;;5026992;28;20448;-73
2023/09/02 12:15:20;;;;;;;2.07;1.97;;;23.50;48.50;;;;;;5025668;28;20443;-73
2023/09/02 12:17:47;;;;;;;1.90;1.80;;;23.50;48.50;;;;;;5037405;28;20437;-71
2023/09/02 12:20:14;;;;;;;1.50;1.40;;;23.50;48.50;;;;;;5031382;28;20446;-67
2023/09/02 12:22:42;;;;;;;2.23;2.13;;;23.50;48.50;;;;;;5026603;28;20515;-73
2023/09/02 12:25:15;;;;;;;2.10;2.00;;;23.50;48.50;;;;;;5025105;28;20447;-74
2023/09/02 12:27:41;;;;;;;2.13;2.03;;;23.50;48.50;;;;;;5020939;28;20444;-70
2023/09/02 12:30:07;;;;;;;1.70;1.60;;;23.50;48.50;;;;;;5022059;28;20435;-68
2023/09/02 12:32:33;;;;;;;1.77;1.67;;;23.50;48.60;;;;;;5027850;28;20194;-65
2023/09/02 12:34:59;;;;;;;2.10;2.00;;;23.50;48.50;;;;;;5030125;28;20440;-64
2023/09/02 12:37:24;;;;;;;1.90;1.80;;;23.50;48.50;;;;;;5024410;28;20191;-65
2023/09/02 12:39:50;;;;;;;2.03;1.80;;;23.50;48.50;;;;;;5024635;28;22962;-66
2023/09/02 12:42:24;;;;;;;2.47;2.37;;;23.50;48.50;;;;;;5020445;28;20215;-68
2023/09/02 12:45:00;;;;;;;1.77;1.67;;;23.50;48.50;;;;;;5023106;28;20249;-67
2023/09/02 12:47:27;;;;;;;1.73;1.63;;;23.50;48.50;;;;;;5027009;28;20439;-73
2023/09/02 12:49:55;;;;;;;2.30;2.20;;;23.50;48.50;;;;;;5026848;28;20454;-70